Terminal Aerodrome Forecast
Issued by NWS Wakefield, VA

Home | Current Version | Previous Version | Text Only | Print | Product List | Glossary On
Versions: 1 2 3 4 5 6 7 8 9 10 11 12 13 14
374
FTUS41 KAKQ 280826 AAA
TAFECG
TAF AMD
KECG 280826Z 2808/2906 VRB03KT 3SM BR BKN120
      TEMPO 2808/2812 2SM BR
     FM281600 VRB03KT P6SM BKN100
     FM281800 14007KT P6SM BKN090=

USA.gov is the U.S. government's official web portal to all federal, state and local government web resources and services.